This is the latest recevied weather packets stored in our database for station/object DB0NLS-15. If no packets are shown the sender has not sent any weather packets the latest 10 day(s).
| Time | Temp. | Humidity | Pressure | Rain* | Wind** | Luminosity | Snow |
|---|---|---|---|---|---|---|---|
| 1777689923 | 5° C | 82% | 1012.9 hPa | 0 mm | - | - | - |
| 1777689320 | 4.44° C | 82% | 1012.9 hPa | 0 mm | - | - | - |
| 1777688717 | 5° C | 81% | 1013 hPa | 0 mm | - | - | - |
| 1777687572 | 5.56° C | 79% | 1013.1 hPa | 0 mm | - | - | - |
| 1777674374 | 9.44° C | 68% | 1013.9 hPa | 0 mm | - | - | - |
| 1777673772 | 9.44° C | 68% | 1014.1 hPa | 0 mm | - | - | - |
| 1777671964 | 10° C | 68% | 1014 hPa | 0 mm | - | - | - |
| 1777671361 | 10° C | 67% | 1014.1 hPa | 0 mm | - | - | - |
| 1777670758 | 10° C | 67% | 1014.1 hPa | 0 mm | - | - | - |
| 1777670156 | 10.56° C | 66% | 1014.1 hPa | 0 mm | - | - | - |
| 1777669553 | 10.56° C | 66% | 1014 hPa | 0 mm | - | - | - |
| 1777668951 | 11.11° C | 65% | 1014.1 hPa | 0 mm | - | - | - |
| 1777668348 | 11.11° C | 65% | 1014 hPa | 0 mm | - | - | - |
| 1777667746 | 11.11° C | 65% | 1014.1 hPa | 0 mm | - | - | - |
| 1777667143 | 11.67° C | 63% | 1014 hPa | 0 mm | - | - | - |
| 1777666540 | 12.22° C | 63% | 1014.1 hPa | 0 mm | - | - | - |
| 1777665938 | 12.78° C | 61% | 1014.2 hPa | 0 mm | - | - | - |
| 1777664130 | 13.89° C | 58% | 1014.2 hPa | 0 mm | - | - | - |
| 1777662925 | 15.56° C | 55% | 1014.2 hPa | 0 mm | - | - | - |
| 1777662322 | 16.11° C | 53% | 1014.2 hPa | 0 mm | - | - | - |
| 1777661719 | 16.67° C | 51% | 1014.2 hPa | 0 mm | - | - | - |
| 1777660574 | 18.33° C | 44% | 1014 hPa | 0 mm | - | - | - |
| 1777659971 | 19.44° C | 41% | 1014.1 hPa | 0 mm | - | - | - |
| 1777659369 | 20.56° C | 39% | 1014 hPa | 0 mm | - | - | - |
| 1777656957 | 21.67° C | 34% | 1013.9 hPa | 0 mm | - | - | - |
* Rain latest hour (hover to see other rain measurements)
** Current wind speed in m/s (hover to see current wind gust speed)